Skip Navigation LinksHome page > Weather > Current weather Skip Navigation Links

Current Weather

Eureka, Nunavut

For information only: do not use for flight planning or navigation.
Latest weather
Observation time Wednesday, October 26, 2016 7:00 PM CDT
Local time Wednesday, October 26, 2016 7:54 PM CDT
Flight conditions Visual Meteorological Conditions
Wind direction Southeast (140°)
Wind speed 16 mph
Visibility 10 mi.
Present weather light snow, drifting snow
Sky condition
Ceiling 10,000 ft. broken clouds
Cloud layer scattered clouds 2,000 ft.
Cloud layer broken clouds 10,000 ft.
Temperature -6°F
Dewpoint -11°F
Altimeter 29.95 in.Hg
Derived measurements
Relative humidity 77%
Wind chill -28°F
Density altitude -4603 ft.
Sea-level pressure 29.96 in.Hg
METAR CWEU 270000Z 14014KT 10SM -SN DRSN SCT020 BKN100 M21/M24 A2995 RMK SC4AC2 SLP144


Location code

InnerDrive.Weather 4.0.6144.1 Release CLR 4.0.30319.34209
Copyright ©2015 Inner Drive Technology. All rights reserved. Portions Copyright ©1986-2015 David Braverman.

Find weather

Site navigation

Skip Navigation Links

Place info

Page info

PayPal - The safer, easier way to pay online!

Return home.

Copyright ©2016 Inner Drive Technology. Purveyors of fine, hand-crafted computer software. Page printed 2016-10-27T00:54:20 UTC.